Time;durP1;ratioP1;P1;durP2;ratioP2;P2;SDS_P1;SDS_P2;PMS_P1;PMS_P2;Temp;Humidity;BMP_temperature;BMP_pressure;BME280_temperature;BME280_humidity;BME280_pressure;Samples;Min_cycle;Max_cycle;Signal;HPM_P1;HPM_P2
2023/11/28 00:01:43;;;;;;;17.73;9.50;;;3.90;99.90;;;;;;5066228;28;20027;-73
2023/11/28 00:04:08;;;;;;;12.95;8.25;;;3.90;99.90;;;;;;5047846;28;20031;-73
2023/11/28 00:06:35;;;;;;;16.85;9.90;;;3.90;99.90;;;;;;5066282;28;20116;-72
2023/11/28 00:09:01;;;;;;;15.50;8.70;;;3.90;99.90;;;;;;5064520;28;20116;-73
2023/11/28 00:11:26;;;;;;;16.60;9.68;;;3.90;99.90;;;;;;5070384;28;20111;-72
2023/11/28 00:13:52;;;;;;;23.58;11.27;;;3.90;99.90;;;;;;5069782;28;20739;-73
2023/11/28 00:16:18;;;;;;;19.67;11.73;;;3.90;99.90;;;;;;5070552;28;20657;-73
2023/11/28 00:18:43;;;;;;;20.95;11.90;;;3.90;99.90;;;;;;5069971;28;20450;-73
2023/11/28 00:21:09;;;;;;;21.70;11.57;;;3.90;99.90;;;;;;5070015;28;20100;-73
2023/11/28 00:23:35;;;;;;;21.15;10.55;;;3.90;99.90;;;;;;5069841;28;20052;-72
2023/11/28 00:26:00;;;;;;;18.98;9.80;;;3.90;99.90;;;;;;5069884;28;20017;-72
2023/11/28 00:28:26;;;;;;;20.17;10.73;;;3.90;99.90;;;;;;5070177;28;20102;-72
2023/11/28 00:30:52;;;;;;;20.02;10.90;;;3.80;99.90;;;;;;5069611;28;20032;-73
2023/11/28 00:33:18;;;;;;;24.55;11.32;;;3.90;99.90;;;;;;5055106;28;20033;-73
2023/11/28 00:35:44;;;;;;;21.05;10.50;;;3.80;99.90;;;;;;5069887;28;20527;-72
2023/11/28 00:38:10;;;;;;;22.95;10.93;;;3.80;99.90;;;;;;5047051;28;20016;-72
2023/11/28 00:40:35;;;;;;;17.35;10.38;;;3.80;99.90;;;;;;5059465;28;20692;-72
2023/11/28 00:43:01;;;;;;;17.75;9.80;;;3.80;99.90;;;;;;5069165;28;20033;-73
2023/11/28 00:45:27;;;;;;;17.55;8.90;;;3.80;99.90;;;;;;5059533;28;20091;-72
2023/11/28 00:47:54;;;;;;;18.70;9.52;;;3.80;99.90;;;;;;5059036;28;20444;-72
2023/11/28 00:50:20;;;;;;;18.83;9.50;;;3.80;99.90;;;;;;5069255;28;20020;-72
2023/11/28 00:52:46;;;;;;;16.67;9.13;;;3.80;99.90;;;;;;5069066;28;20023;-73
2023/11/28 00:55:12;;;;;;;15.10;8.88;;;3.80;99.90;;;;;;5069397;28;20452;-72
2023/11/28 00:57:37;;;;;;;13.55;7.93;;;3.70;99.90;;;;;;5064611;28;20029;-73
2023/11/28 01:00:10;;;;;;;13.63;8.15;;;3.70;99.90;;;;;;5051267;28;20511;-72
2023/11/28 01:02:37;;;;;;;16.92;8.85;;;3.70;99.90;;;;;;5068846;28;20040;-72
2023/11/28 01:05:04;;;;;;;14.88;8.48;;;3.70;99.90;;;;;;5069319;28;20440;-72
2023/11/28 01:07:30;;;;;;;22.73;10.85;;;3.70;99.90;;;;;;5069126;28;20020;-72
2023/11/28 01:09:55;;;;;;;22.77;10.93;;;3.70;99.90;;;;;;5068900;28;20378;-73
2023/11/28 01:12:21;;;;;;;16.52;8.80;;;3.70;99.90;;;;;;5067198;28;20035;-72
2023/11/28 01:14:47;;;;;;;20.13;10.35;;;3.70;99.90;;;;;;5067339;28;20023;-72
2023/11/28 01:17:12;;;;;;;23.98;11.18;;;3.70;99.90;;;;;;5068905;28;20111;-72
2023/11/28 01:19:39;;;;;;;18.63;10.07;;;3.70;99.90;;;;;;5068527;28;20107;-72
2023/11/28 01:22:06;;;;;;;29.95;11.93;;;3.70;99.90;;;;;;5068468;28;20042;-73
2023/11/28 01:24:32;;;;;;;15.20;8.70;;;3.70;99.90;;;;;;5052560;28;20313;-72
2023/11/28 01:26:58;;;;;;;16.70;9.05;;;3.70;99.90;;;;;;5068718;28;20035;-73
2023/11/28 01:29:24;;;;;;;19.23;9.95;;;3.70;99.90;;;;;;5054146;28;20020;-72
2023/11/28 01:31:50;;;;;;;20.30;9.82;;;3.60;99.90;;;;;;5068892;28;20396;-72
2023/11/28 01:34:16;;;;;;;21.00;10.00;;;3.60;99.90;;;;;;5068643;28;20028;-72
2023/11/28 01:36:43;;;;;;;24.75;10.57;;;3.70;99.90;;;;;;5068686;28;20481;-72
2023/11/28 01:39:09;;;;;;;14.00;8.63;;;3.60;99.90;;;;;;5077338;28;20489;-73
2023/11/28 01:41:35;;;;;;;14.38;8.77;;;3.60;99.90;;;;;;5066185;28;20023;-72
2023/11/28 01:44:04;;;;;;;16.20;9.05;;;3.60;99.90;;;;;;5068450;28;20017;-71
2023/11/28 01:46:32;;;;;;;15.10;8.63;;;3.60;99.90;;;;;;5063172;28;20074;-72
2023/11/28 01:48:58;;;;;;;19.60;9.70;;;3.60;99.90;;;;;;5068067;28;20044;-72
2023/11/28 01:51:24;;;;;;;18.15;9.25;;;3.60;99.90;;;;;;5068301;28;20020;-73
2023/11/28 01:53:54;;;;;;;17.73;9.52;;;3.60;99.90;;;;;;5067614;28;20020;-72
2023/11/28 01:56:20;;;;;;;15.80;9.60;;;3.60;99.90;;;;;;5068106;28;20592;-73
2023/11/28 01:58:47;;;;;;;11.07;7.30;;;3.60;99.90;;;;;;5067479;28;20647;-73
2023/11/28 02:01:12;;;;;;;18.75;9.30;;;3.50;99.90;;;;;;5068106;28;20029;-72
2023/11/28 02:03:41;;;;;;;16.73;8.88;;;3.50;99.90;;;;;;5067765;28;20025;-72
2023/11/28 02:06:08;;;;;;;19.40;9.77;;;3.50;99.90;;;;;;5080805;28;20034;-72
2023/11/28 02:08:34;;;;;;;22.70;10.05;;;3.50;99.90;;;;;;5067607;28;20036;-72
2023/11/28 02:11:00;;;;;;;15.55;8.15;;;3.50;99.90;;;;;;5082175;28;20078;-73
2023/11/28 02:13:26;;;;;;;17.80;9.05;;;3.50;99.90;;;;;;5077891;28;20516;-72
2023/11/28 02:15:51;;;;;;;17.30;9.20;;;3.50;99.90;;;;;;5071445;28;20021;-72
2023/11/28 02:18:17;;;;;;;14.93;8.90;;;3.50;99.90;;;;;;5061032;28;20015;-72
2023/11/28 02:20:43;;;;;;;18.80;9.90;;;3.50;99.90;;;;;;5067651;28;20147;-72
2023/11/28 02:23:09;;;;;;;21.70;10.48;;;3.50;99.90;;;;;;5067502;28;20432;-72
2023/11/28 02:25:43;;;;;;;21.10;10.07;;;3.50;99.90;;;;;;5067821;28;20028;-72
2023/11/28 02:28:08;;;;;;;16.10;10.00;;;3.50;99.90;;;;;;5067344;28;20017;-72
2023/11/28 02:30:34;;;;;;;14.82;9.80;;;3.40;99.90;;;;;;5067525;28;20511;-72
2023/11/28 02:33:00;;;;;;;21.40;10.68;;;3.50;99.90;;;;;;5066532;28;20020;-72
2023/11/28 02:35:26;;;;;;;21.58;10.82;;;3.50;99.90;;;;;;5067437;28;20492;-72
2023/11/28 02:37:51;;;;;;;17.95;10.38;;;3.40;99.90;;;;;;5055353;28;20028;-72
2023/11/28 02:40:17;;;;;;;17.42;11.05;;;3.40;99.90;;;;;;5054336;28;20148;-72
2023/11/28 02:42:43;;;;;;;17.27;10.00;;;3.40;99.90;;;;;;5055710;28;20028;-72
2023/11/28 02:45:09;;;;;;;22.02;11.32;;;3.40;99.90;;;;;;5066667;28;20031;-72
2023/11/28 02:47:34;;;;;;;16.90;10.68;;;3.40;99.90;;;;;;5066847;28;20028;-72
2023/11/28 02:50:00;;;;;;;17.50;9.70;;;3.40;99.90;;;;;;5066969;28;20056;-72
2023/11/28 02:52:26;;;;;;;23.05;12.05;;;3.40;99.90;;;;;;5066983;28;20028;-72
2023/11/28 02:54:51;;;;;;;24.08;12.20;;;3.40;99.90;;;;;;5066917;28;20017;-72
2023/11/28 02:57:17;;;;;;;19.75;11.57;;;3.30;99.90;;;;;;5066728;28;20111;-72
2023/11/28 02:59:43;;;;;;;22.58;12.18;;;3.40;99.90;;;;;;5066605;28;20385;-71
2023/11/28 03:02:08;;;;;;;23.92;13.90;;;3.30;99.90;;;;;;5067096;28;20032;-72
2023/11/28 03:04:34;;;;;;;21.08;12.35;;;3.40;99.90;;;;;;5066573;28;20029;-72
2023/11/28 03:07:00;;;;;;;21.35;12.55;;;3.40;99.90;;;;;;5067121;28;20032;-72
2023/11/28 03:09:25;;;;;;;22.13;12.00;;;3.40;99.90;;;;;;5066482;28;20104;-72
2023/11/28 03:11:51;;;;;;;21.50;11.68;;;3.30;99.90;;;;;;5066893;28;20396;-72
2023/11/28 03:14:17;;;;;;;21.40;12.32;;;3.30;99.90;;;;;;5048387;28;20013;-72
2023/11/28 03:16:42;;;;;;;18.80;11.77;;;3.30;99.90;;;;;;5066797;28;20020;-73
2023/11/28 03:19:09;;;;;;;23.52;13.20;;;3.30;99.90;;;;;;5066375;28;20020;-72
2023/11/28 03:21:35;;;;;;;17.85;10.45;;;3.30;99.90;;;;;;5066590;28;20139;-72
2023/11/28 03:24:01;;;;;;;23.73;11.45;;;3.30;99.90;;;;;;5066401;28;20048;-72
2023/11/28 03:26:26;;;;;;;20.15;11.57;;;3.20;99.90;;;;;;5050818;28;20025;-73
2023/11/28 03:28:52;;;;;;;17.50;10.95;;;3.20;99.90;;;;;;5056440;28;20048;-72
2023/11/28 03:31:18;;;;;;;20.73;11.10;;;3.30;99.90;;;;;;5066610;28;20099;-72
2023/11/28 03:33:43;;;;;;;20.05;11.40;;;3.30;99.90;;;;;;5066417;28;20021;-71
2023/11/28 03:36:18;;;;;;;18.98;10.80;;;3.30;99.90;;;;;;5053413;28;20025;-72
2023/11/28 03:38:49;;;;;;;23.90;10.43;;;3.20;99.90;;;;;;5056995;28;20049;-73
2023/11/28 03:41:15;;;;;;;14.23;8.75;;;3.30;99.90;;;;;;5062197;28;20029;-72
2023/11/28 03:43:41;;;;;;;14.98;8.57;;;3.30;99.90;;;;;;5049174;28;20363;-72
2023/11/28 03:46:07;;;;;;;17.70;8.38;;;3.20;99.90;;;;;;5071057;28;20466;-72
2023/11/28 03:48:32;;;;;;;18.65;8.70;;;3.10;99.90;;;;;;5070271;28;20040;-72
2023/11/28 03:50:58;;;;;;;14.30;6.85;;;3.10;99.90;;;;;;5065023;28;20449;-72
2023/11/28 03:53:24;;;;;;;14.68;6.80;;;3.10;99.90;;;;;;5070415;28;20025;-72
2023/11/28 03:55:49;;;;;;;12.70;7.03;;;3.10;99.90;;;;;;5070263;28;20052;-72
2023/11/28 03:58:15;;;;;;;13.52;7.40;;;3.10;99.90;;;;;;5070446;28;20021;-72
2023/11/28 04:00:41;;;;;;;11.68;5.97;;;3.10;99.90;;;;;;5070664;28;20131;-72
2023/11/28 04:03:08;;;;;;;12.93;5.90;;;3.00;99.90;;;;;;5070421;28;20090;-71
2023/11/28 04:05:34;;;;;;;7.68;4.57;;;3.00;99.90;;;;;;5056633;28;20147;-72
2023/11/28 04:07:59;;;;;;;13.85;4.85;;;2.90;99.90;;;;;;5070238;28;20525;-72
2023/11/28 04:10:25;;;;;;;9.68;4.35;;;2.90;99.90;;;;;;5070199;28;20025;-72
2023/11/28 04:12:51;;;;;;;8.50;4.00;;;2.80;99.90;;;;;;5070213;28;20044;-72
2023/11/28 04:15:17;;;;;;;9.20;4.15;;;2.80;99.90;;;;;;5069965;28;20111;-72
2023/11/28 04:17:43;;;;;;;8.13;3.97;;;2.70;99.90;;;;;;5051944;28;20017;-71
2023/11/28 04:20:09;;;;;;;10.98;3.90;;;2.60;99.90;;;;;;5069503;28;20025;-72
2023/11/28 04:22:35;;;;;;;7.47;3.53;;;2.60;99.90;;;;;;5070104;28;20086;-72
2023/11/28 04:25:01;;;;;;;8.88;3.60;;;2.60;99.90;;;;;;5069603;28;20020;-72
2023/11/28 04:27:27;;;;;;;7.45;3.42;;;2.50;99.90;;;;;;5070181;28;20036;-72
2023/11/28 04:29:52;;;;;;;7.20;3.05;;;2.50;99.90;;;;;;5069237;28;20028;-72
2023/11/28 04:32:18;;;;;;;8.95;3.38;;;2.50;99.90;;;;;;5069874;28;20017;-72
2023/11/28 04:34:43;;;;;;;7.45;3.30;;;2.40;99.90;;;;;;5069378;28;20013;-72
2023/11/28 04:37:09;;;;;;;7.72;3.25;;;2.40;99.90;;;;;;5069395;28;20393;-72
2023/11/28 04:39:35;;;;;;;5.95;3.00;;;2.30;99.90;;;;;;5055038;28;20091;-72
2023/11/28 04:42:00;;;;;;;6.65;3.10;;;2.30;99.90;;;;;;5063693;28;20044;-72
2023/11/28 04:44:26;;;;;;;5.60;2.72;;;2.30;99.90;;;;;;5069291;28;20487;-72
2023/11/28 04:46:52;;;;;;;6.82;2.85;;;2.20;99.90;;;;;;5051694;28;20036;-72
2023/11/28 04:49:18;;;;;;;6.80;3.10;;;2.20;99.90;;;;;;5069482;28;20023;-73
2023/11/28 04:51:43;;;;;;;7.20;3.20;;;2.20;99.90;;;;;;5069129;28;20398;-72
2023/11/28 04:54:09;;;;;;;6.20;3.10;;;2.20;99.90;;;;;;5069088;28;20021;-71
2023/11/28 04:56:35;;;;;;;8.13;3.53;;;2.20;99.90;;;;;;5068531;28;20103;-72
2023/11/28 04:59:01;;;;;;;8.15;2.83;;;2.10;99.90;;;;;;5053162;28;20017;-72
2023/11/28 05:01:26;;;;;;;6.43;3.03;;;2.10;99.90;;;;;;5069006;28;20035;-72
2023/11/28 05:03:52;;;;;;;5.45;3.00;;;2.10;99.90;;;;;;5068557;28;20490;-72
2023/11/28 05:06:17;;;;;;;6.47;3.35;;;2.10;99.90;;;;;;5069346;28;20024;-72
2023/11/28 05:08:43;;;;;;;7.32;3.20;;;2.10;99.90;;;;;;5068796;28;20031;-71
2023/11/28 05:11:10;;;;;;;7.65;3.65;;;2.10;99.90;;;;;;5068839;28;20736;-72
2023/11/28 05:13:36;;;;;;;7.32;3.40;;;2.10;99.90;;;;;;5059113;28;20528;-72
2023/11/28 05:16:03;;;;;;;9.48;3.42;;;2.00;99.90;;;;;;5069266;28;20032;-72
2023/11/28 05:18:28;;;;;;;8.25;3.60;;;2.00;99.90;;;;;;5050681;28;20448;-72
2023/11/28 05:20:54;;;;;;;10.00;3.70;;;2.00;99.90;;;;;;5068893;28;20490;-72
2023/11/28 05:23:20;;;;;;;8.15;3.65;;;2.00;99.90;;;;;;5068535;28;20074;-72
2023/11/28 05:25:45;;;;;;;6.15;3.22;;;2.00;99.90;;;;;;5068681;28;20039;-72
2023/11/28 05:28:11;;;;;;;6.47;3.15;;;2.00;99.90;;;;;;5068727;28;20017;-73
2023/11/28 05:30:36;;;;;;;7.82;3.90;;;2.00;99.90;;;;;;5068125;28;20473;-72
2023/11/28 05:33:02;;;;;;;6.90;3.75;;;2.00;99.90;;;;;;5068430;28;20154;-72
2023/11/28 05:35:28;;;;;;;7.72;3.65;;;1.90;99.90;;;;;;5068485;28;20017;-72
2023/11/28 05:37:53;;;;;;;8.38;3.47;;;2.00;99.90;;;;;;5068558;28;20028;-72
2023/11/28 05:40:21;;;;;;;6.95;3.50;;;2.00;99.90;;;;;;5050049;28;20048;-72
2023/11/28 05:42:47;;;;;;;11.65;3.60;;;2.00;99.90;;;;;;5068341;28;20020;-72
2023/11/28 05:45:12;;;;;;;8.68;3.97;;;1.90;99.90;;;;;;5066706;28;20443;-72
2023/11/28 05:47:39;;;;;;;8.15;3.38;;;2.00;99.90;;;;;;5068577;28;20862;-73
2023/11/28 05:50:05;;;;;;;7.28;3.58;;;1.90;99.90;;;;;;5067777;28;20059;-72
2023/11/28 05:52:30;;;;;;;10.13;3.78;;;1.90;99.90;;;;;;5068302;28;20107;-72
2023/11/28 05:54:56;;;;;;;7.45;3.60;;;1.90;99.90;;;;;;5068241;28;20021;-73
2023/11/28 05:57:23;;;;;;;7.20;3.25;;;1.90;99.90;;;;;;5068240;28;20027;-72
2023/11/28 05:59:50;;;;;;;8.25;3.97;;;1.90;99.90;;;;;;5067908;28;20020;-72
2023/11/28 06:02:16;;;;;;;9.27;3.88;;;1.90;99.90;;;;;;5067854;28;20050;-72
2023/11/28 06:04:41;;;;;;;7.88;3.70;;;2.00;99.90;;;;;;5064716;28;20473;-72
2023/11/28 06:07:07;;;;;;;5.53;3.03;;;2.00;99.90;;;;;;5062371;28;20032;-73
2023/11/28 06:09:33;;;;;;;8.35;4.25;;;2.00;99.90;;;;;;5066422;28;20138;-72
2023/11/28 06:11:58;;;;;;;6.85;3.60;;;2.00;99.90;;;;;;5067782;28;20029;-71
2023/11/28 06:14:24;;;;;;;8.50;3.60;;;2.00;99.90;;;;;;5048958;28;20110;-72
2023/11/28 06:16:50;;;;;;;9.25;3.95;;;2.00;99.90;;;;;;5066815;28;20025;-72
2023/11/28 06:19:16;;;;;;;9.25;4.13;;;2.00;99.90;;;;;;5067245;28;20027;-72
2023/11/28 06:21:42;;;;;;;9.38;3.97;;;2.00;99.90;;;;;;5067277;28;20033;-72
2023/11/28 06:24:08;;;;;;;8.50;3.40;;;2.00;99.90;;;;;;5067049;28;20127;-72
2023/11/28 06:26:34;;;;;;;11.38;4.03;;;2.00;99.90;;;;;;5067365;28;20028;-72
2023/11/28 06:28:59;;;;;;;11.38;4.05;;;2.10;99.90;;;;;;5049189;28;20047;-72
2023/11/28 06:31:25;;;;;;;8.68;4.38;;;2.10;99.90;;;;;;5066187;28;20036;-72
2023/11/28 06:33:51;;;;;;;7.65;3.83;;;2.10;99.90;;;;;;5059089;28;20023;-73
2023/11/28 06:36:21;;;;;;;11.10;4.32;;;2.10;99.90;;;;;;5048809;28;20028;-72
2023/11/28 06:38:48;;;;;;;7.68;3.78;;;2.10;99.90;;;;;;5066610;28;20524;-72
2023/11/28 06:41:14;;;;;;;8.05;3.80;;;2.10;99.90;;;;;;5067229;28;20024;-73
2023/11/28 06:43:39;;;;;;;9.68;3.90;;;2.10;99.90;;;;;;5066748;28;20028;-72
2023/11/28 06:46:06;;;;;;;8.85;3.47;;;2.10;99.90;;;;;;5066419;28;20044;-72
2023/11/28 06:48:32;;;;;;;9.45;3.83;;;2.20;99.90;;;;;;5066764;28;20039;-72
2023/11/28 06:50:58;;;;;;;8.90;3.88;;;2.20;99.90;;;;;;5066374;28;20685;-72
2023/11/28 06:53:23;;;;;;;9.27;3.75;;;2.20;99.90;;;;;;5065280;28;20094;-72
2023/11/28 06:55:49;;;;;;;8.90;3.72;;;2.20;99.90;;;;;;5047893;28;20243;-72
2023/11/28 06:58:15;;;;;;;9.15;3.90;;;2.20;99.90;;;;;;5066374;28;20083;-72
2023/11/28 07:00:41;;;;;;;9.25;4.00;;;2.20;99.90;;;;;;5047582;28;20111;-72
2023/11/28 07:03:06;;;;;;;9.32;4.00;;;2.20;99.90;;;;;;5065224;28;20107;-72
2023/11/28 07:05:32;;;;;;;9.18;3.53;;;2.20;99.90;;;;;;5047287;28;20512;-72
2023/11/28 07:07:58;;;;;;;11.73;3.95;;;2.20;99.90;;;;;;5065868;28;20094;-72
2023/11/28 07:10:23;;;;;;;8.05;3.83;;;2.20;99.90;;;;;;5065293;28;20032;-72
2023/11/28 07:12:49;;;;;;;6.50;3.33;;;2.20;99.90;;;;;;5065051;28;20036;-72
2023/11/28 07:15:15;;;;;;;8.45;3.65;;;2.20;99.90;;;;;;5064600;28;20028;-72
2023/11/28 07:17:41;;;;;;;9.85;3.80;;;2.20;99.90;;;;;;5064956;28;20016;-72
2023/11/28 07:20:09;;;;;;;10.02;3.95;;;2.20;99.90;;;;;;5064671;28;20536;-72
2023/11/28 07:22:35;;;;;;;10.52;3.83;;;2.30;99.90;;;;;;5064572;28;20118;-72
2023/11/28 07:25:01;;;;;;;10.20;4.15;;;2.20;99.90;;;;;;5064048;28;20589;-72
2023/11/28 07:27:27;;;;;;;8.40;3.85;;;2.30;99.90;;;;;;5065805;28;20024;-72
2023/11/28 07:29:52;;;;;;;7.88;3.72;;;2.30;99.90;;;;;;5065032;28;20028;-72
2023/11/28 07:32:19;;;;;;;8.05;3.40;;;2.30;99.90;;;;;;5066054;28;20025;-72
2023/11/28 07:34:44;;;;;;;9.70;3.67;;;2.30;99.90;;;;;;5066083;28;20031;-72
2023/11/28 07:37:10;;;;;;;11.43;3.80;;;2.30;99.90;;;;;;5066504;28;20012;-72
2023/11/28 07:39:38;;;;;;;11.10;4.07;;;2.30;99.90;;;;;;5065515;28;20543;-72
2023/11/28 07:42:04;;;;;;;7.78;3.80;;;2.30;99.90;;;;;;5066221;28;20035;-72
2023/11/28 07:44:29;;;;;;;7.28;3.92;;;2.30;99.90;;;;;;5065983;28;20037;-72
2023/11/28 07:46:55;;;;;;;8.30;3.72;;;2.30;99.90;;;;;;5065958;28;20553;-72
2023/11/28 07:49:21;;;;;;;8.25;3.65;;;2.40;99.90;;;;;;5065854;28;20024;-73
2023/11/28 07:51:47;;;;;;;7.65;3.45;;;2.40;99.90;;;;;;5065636;28;20074;-72
2023/11/28 07:54:12;;;;;;;7.57;3.50;;;2.30;99.90;;;;;;5066059;28;20039;-72
2023/11/28 07:56:39;;;;;;;7.68;3.55;;;2.30;99.90;;;;;;5066195;28;20052;-73
2023/11/28 07:59:04;;;;;;;8.80;3.70;;;2.30;99.90;;;;;;5058892;28;20081;-72
2023/11/28 08:01:30;;;;;;;8.02;3.55;;;2.30;99.90;;;;;;5065984;28;20079;-72
2023/11/28 08:03:56;;;;;;;8.10;3.65;;;2.40;99.90;;;;;;5056338;28;20835;-72
2023/11/28 08:06:21;;;;;;;7.70;3.55;;;2.40;99.90;;;;;;5064709;28;20020;-72
2023/11/28 08:08:47;;;;;;;8.90;3.60;;;2.40;99.90;;;;;;5065640;28;20021;-73
2023/11/28 08:11:14;;;;;;;6.82;2.83;;;2.40;99.90;;;;;;5061679;28;20039;-72
2023/11/28 08:13:40;;;;;;;8.80;3.40;;;2.40;99.90;;;;;;5071080;28;20048;-72
2023/11/28 08:16:06;;;;;;;6.15;3.25;;;2.40;99.90;;;;;;5065471;28;20452;-72
2023/11/28 08:18:31;;;;;;;9.30;3.63;;;2.40;99.90;;;;;;5065563;28;20397;-73
2023/11/28 08:20:57;;;;;;;10.93;3.05;;;2.40;99.90;;;;;;5065267;28;20470;-72
2023/11/28 08:23:23;;;;;;;9.60;3.35;;;2.40;99.90;;;;;;5064688;28;20124;-72
2023/11/28 08:25:49;;;;;;;7.10;3.38;;;2.50;99.90;;;;;;5065303;28;20512;-73
2023/11/28 08:28:15;;;;;;;6.53;3.40;;;2.50;99.90;;;;;;5065833;28;20024;-72
2023/11/28 08:30:41;;;;;;;5.80;3.25;;;2.50;99.90;;;;;;5065963;28;20031;-72
2023/11/28 08:33:07;;;;;;;9.60;3.13;;;2.50;99.90;;;;;;5069226;28;20033;-72
2023/11/28 08:35:32;;;;;;;6.05;3.13;;;2.50;99.90;;;;;;5068967;28;20536;-72
2023/11/28 08:37:58;;;;;;;6.13;2.95;;;2.50;99.90;;;;;;5067107;28;20504;-73
2023/11/28 08:40:24;;;;;;;7.95;3.30;;;2.50;99.90;;;;;;5044366;28;20052;-73
2023/11/28 08:42:50;;;;;;;8.88;3.30;;;2.50;99.90;;;;;;5069354;28;20823;-72
2023/11/28 08:45:16;;;;;;;8.07;3.20;;;2.50;99.90;;;;;;5069110;28;20024;-72
2023/11/28 08:47:43;;;;;;;6.25;3.05;;;2.50;99.90;;;;;;5069262;28;20032;-72
2023/11/28 08:50:09;;;;;;;9.20;3.63;;;2.50;99.90;;;;;;5068386;28;20036;-72
2023/11/28 08:52:35;;;;;;;6.07;3.00;;;2.60;99.90;;;;;;5066792;28;20094;-72
2023/11/28 08:55:01;;;;;;;8.73;3.83;;;2.50;99.90;;;;;;5056238;28;20482;-72
2023/11/28 08:57:33;;;;;;;9.02;3.55;;;2.60;99.90;;;;;;5068850;28;20754;-72
2023/11/28 09:00:03;;;;;;;7.95;3.42;;;2.60;99.90;;;;;;5068465;28;20098;-72
2023/11/28 09:02:29;;;;;;;7.60;3.30;;;2.70;99.90;;;;;;5068807;28;20028;-73
2023/11/28 09:04:55;;;;;;;10.20;3.53;;;2.70;99.90;;;;;;5060298;28;20324;-72
2023/11/28 09:07:21;;;;;;;8.73;3.40;;;2.80;99.90;;;;;;5050861;28;20028;-73
2023/11/28 09:09:47;;;;;;;11.02;3.33;;;2.90;99.90;;;;;;5068118;28;20028;-72
2023/11/28 09:12:15;;;;;;;8.05;3.60;;;2.90;99.90;;;;;;5050874;28;20024;-72
2023/11/28 09:14:40;;;;;;;8.40;3.30;;;3.00;99.90;;;;;;5068377;28;20046;-73
2023/11/28 09:17:06;;;;;;;7.05;3.92;;;3.10;99.90;;;;;;5050615;28;20470;-72
2023/11/28 09:19:32;;;;;;;7.55;3.75;;;3.20;99.90;;;;;;5050545;28;20032;-73
2023/11/28 09:22:01;;;;;;;8.73;3.65;;;3.20;99.90;;;;;;5068635;28;20028;-72
2023/11/28 09:24:27;;;;;;;12.13;3.60;;;3.30;99.90;;;;;;5049733;28;20035;-72
2023/11/28 09:26:53;;;;;;;8.18;3.53;;;3.40;99.90;;;;;;5068570;28;20012;-73
2023/11/28 09:29:22;;;;;;;4.90;2.60;;;3.40;99.90;;;;;;5067371;28;20029;-73
2023/11/28 09:31:48;;;;;;;8.75;3.72;;;3.50;99.90;;;;;;5053783;28;20028;-73
2023/11/28 09:34:14;;;;;;;7.13;3.20;;;3.50;99.90;;;;;;5056877;28;20398;-73
2023/11/28 09:36:39;;;;;;;8.40;3.40;;;3.60;99.90;;;;;;5068470;28;20016;-72
2023/11/28 09:39:05;;;;;;;6.07;3.17;;;3.70;99.90;;;;;;5041172;28;20433;-73
2023/11/28 09:41:35;;;;;;;7.72;3.30;;;3.70;99.90;;;;;;5065565;28;20020;-73
2023/11/28 09:44:02;;;;;;;7.37;3.60;;;3.70;99.90;;;;;;5068825;28;20017;-72
2023/11/28 09:46:30;;;;;;;6.55;3.42;;;3.80;99.90;;;;;;5067991;28;20048;-73
2023/11/28 09:48:58;;;;;;;5.55;3.08;;;3.80;99.90;;;;;;5067611;28;20036;-73
2023/11/28 09:51:27;;;;;;;7.88;4.05;;;3.90;99.90;;;;;;5068252;28;20445;-72
2023/11/28 09:53:57;;;;;;;10.57;4.25;;;3.90;99.90;;;;;;5076774;28;20023;-73
2023/11/28 09:56:24;;;;;;;8.32;3.90;;;4.00;99.90;;;;;;5058358;28;20099;-72
2023/11/28 09:58:55;;;;;;;8.00;3.47;;;4.10;99.90;;;;;;5067948;28;20113;-73
2023/11/28 10:01:21;;;;;;;8.80;3.50;;;4.10;99.90;;;;;;5049655;28;20119;-72
2023/11/28 10:03:47;;;;;;;8.88;4.05;;;4.10;99.90;;;;;;5068154;28;20024;-72
2023/11/28 10:06:17;;;;;;;8.18;3.70;;;4.20;99.90;;;;;;5067693;28;20021;-72
2023/11/28 10:08:47;;;;;;;7.03;3.33;;;4.30;99.90;;;;;;5066013;28;20094;-73
2023/11/28 10:11:16;;;;;;;10.63;4.05;;;4.30;99.90;;;;;;5065804;28;20033;-74
2023/11/28 10:13:46;;;;;;;7.40;4.18;;;4.30;99.90;;;;;;5065543;28;20021;-72
2023/11/28 10:16:13;;;;;;;6.45;3.47;;;4.40;99.90;;;;;;5048629;28;20021;-72
2023/11/28 10:18:47;;;;;;;7.15;3.53;;;4.50;99.90;;;;;;5065883;28;20067;-72
2023/11/28 10:21:14;;;;;;;5.85;3.60;;;4.50;99.90;;;;;;5064806;28;20028;-73
2023/11/28 10:23:46;;;;;;;5.90;3.35;;;4.50;99.90;;;;;;5070078;28;20040;-73
2023/11/28 10:26:13;;;;;;;8.25;3.47;;;4.60;99.90;;;;;;5042600;28;20028;-73
2023/11/28 10:28:38;;;;;;;5.55;2.80;;;4.60;99.90;;;;;;5063476;28;20039;-73
2023/11/28 10:31:06;;;;;;;5.80;3.60;;;4.60;99.90;;;;;;5065797;28;20029;-73
2023/11/28 10:33:32;;;;;;;6.47;3.90;;;4.70;99.90;;;;;;5068113;28;20252;-72
2023/11/28 10:35:58;;;;;;;5.10;3.22;;;4.70;99.90;;;;;;5066425;28;20021;-72
2023/11/28 10:38:26;;;;;;;7.65;3.50;;;4.80;99.90;;;;;;5066279;28;20055;-72
2023/11/28 10:40:53;;;;;;;8.85;4.25;;;4.80;99.90;;;;;;5062162;28;20078;-72
2023/11/28 10:43:19;;;;;;;7.35;3.50;;;4.80;99.90;;;;;;5066301;28;20039;-73
2023/11/28 10:45:45;;;;;;;7.10;3.25;;;4.90;99.90;;;;;;5066099;28;20035;-72
2023/11/28 10:48:12;;;;;;;6.47;3.30;;;4.90;99.90;;;;;;5049283;28;20047;-72
2023/11/28 10:50:38;;;;;;;5.97;3.28;;;4.90;99.90;;;;;;5047326;28;20093;-72
2023/11/28 10:53:04;;;;;;;6.88;3.80;;;5.00;99.90;;;;;;5064111;28;20481;-72
2023/11/28 10:55:37;;;;;;;6.40;3.47;;;5.00;99.90;;;;;;5043023;28;20028;-72
2023/11/28 10:58:05;;;;;;;7.68;3.70;;;5.00;99.90;;;;;;5067997;28;20020;-72
2023/11/28 11:00:40;;;;;;;6.10;3.40;;;5.10;99.90;;;;;;5062097;28;20037;-72
2023/11/28 11:03:09;;;;;;;5.85;3.15;;;5.20;99.90;;;;;;5063194;28;20028;-72
2023/11/28 11:05:35;;;;;;;6.65;4.13;;;5.30;99.90;;;;;;5050258;28;20025;-72
2023/11/28 11:08:03;;;;;;;6.95;3.15;;;5.50;99.90;;;;;;5065497;28;20025;-73
2023/11/28 11:10:32;;;;;;;6.45;3.53;;;5.80;99.90;;;;;;5063256;28;20115;-72
2023/11/28 11:13:21;;;;;;;6.70;3.67;;;6.10;99.90;;;;;;5068419;28;20059;-73
2023/11/28 11:15:53;;;;;;;6.75;3.15;;;6.40;99.90;;;;;;5026827;28;20033;-72
2023/11/28 11:18:41;;;;;;;7.28;3.45;;;6.60;99.90;;;;;;5065781;28;20799;-72
2023/11/28 11:21:51;;;;;;;6.85;3.25;;;6.80;99.90;;;;;;5062785;28;20016;-73
2023/11/28 11:24:19;;;;;;;6.32;3.10;;;7.00;99.90;;;;;;5027899;28;20044;-73
2023/11/28 11:26:46;;;;;;;9.20;3.50;;;7.20;99.90;;;;;;5045604;28;20039;-72
2023/11/28 11:29:24;;;;;;;7.30;3.75;;;7.20;99.90;;;;;;5043416;28;20102;-73
2023/11/28 11:31:55;;;;;;;4.68;3.22;;;7.20;99.90;;;;;;5066641;28;20029;-72
2023/11/28 11:34:36;;;;;;;;;;;7.20;99.90;;;;;;5063881;28;20090;-72
2023/11/28 11:37:19;;;;;;;5.63;2.67;;;7.30;99.90;;;;;;5062953;28;19921;-72
2023/11/28 11:39:46;;;;;;;6.05;3.20;;;7.20;99.90;;;;;;5073569;28;20044;-73
2023/11/28 11:42:19;;;;;;;6.18;3.53;;;7.00;99.90;;;;;;5071701;28;20090;-73
2023/11/28 11:44:52;;;;;;;6.68;3.15;;;7.00;99.90;;;;;;5068750;28;20028;-73
2023/11/28 11:47:28;;;;;;;7.05;3.22;;;6.90;99.90;;;;;;5050101;28;20032;-72
2023/11/28 11:49:57;;;;;;;5.35;3.08;;;7.00;99.90;;;;;;5063136;28;20192;-72
2023/11/28 11:52:27;;;;;;;6.72;2.85;;;7.00;99.90;;;;;;5069808;28;20410;-73
2023/11/28 11:55:06;;;;;;;5.32;2.72;;;6.90;99.90;;;;;;5067124;28;20474;-73
2023/11/28 11:57:32;;;;;;;4.47;2.83;;;6.80;99.90;;;;;;5067518;28;20036;-73
2023/11/28 11:59:59;;;;;;;6.65;3.22;;;6.70;99.90;;;;;;5073259;28;20041;-73
2023/11/28 12:02:45;;;;;;;6.28;2.90;;;6.60;99.90;;;;;;5069422;28;20486;-73
2023/11/28 12:05:11;;;;;;;4.22;2.53;;;6.50;99.90;;;;;;5052545;28;20029;-73
2023/11/28 12:07:39;;;;;;;7.68;3.15;;;6.50;99.90;;;;;;5071646;28;20028;-73
2023/11/28 12:10:11;;;;;;;6.72;3.38;;;6.60;99.90;;;;;;5069549;28;20071;-73
2023/11/28 12:12:37;;;;;;;6.30;2.70;;;6.80;99.90;;;;;;5049729;28;20052;-73
2023/11/28 12:15:04;;;;;;;3.33;2.00;;;6.80;99.90;;;;;;5067554;28;20079;-73
2023/11/28 12:17:29;;;;;;;5.00;2.60;;;6.80;99.90;;;;;;5081597;28;20454;-73
2023/11/28 12:19:55;;;;;;;4.82;2.58;;;6.70;99.90;;;;;;5076113;28;20059;-73
2023/11/28 12:22:22;;;;;;;4.95;2.40;;;6.60;99.90;;;;;;5067137;28;20025;-73
2023/11/28 12:24:47;;;;;;;5.32;2.63;;;6.50;99.90;;;;;;5074507;28;20028;-73
2023/11/28 12:27:13;;;;;;;4.20;2.38;;;6.40;99.90;;;;;;5070708;28;20066;-73
2023/11/28 12:29:40;;;;;;;5.50;2.30;;;6.40;99.90;;;;;;5077879;28;20060;-73
2023/11/28 12:32:06;;;;;;;6.45;2.35;;;6.30;99.90;;;;;;5054674;28;20107;-73
2023/11/28 12:34:32;;;;;;;4.30;2.55;;;6.20;99.90;;;;;;5085303;28;20046;-73
2023/11/28 12:36:59;;;;;;;3.28;2.00;;;6.20;99.90;;;;;;5079734;28;20227;-73
2023/11/28 12:39:26;;;;;;;4.80;2.50;;;6.20;99.90;;;;;;5081624;28;20044;-73
2023/11/28 12:41:53;;;;;;;4.88;2.50;;;6.10;99.90;;;;;;5073397;28;20376;-74
2023/11/28 12:44:24;;;;;;;6.03;2.70;;;6.10;99.90;;;;;;5073144;28;20025;-73
2023/11/28 12:46:51;;;;;;;5.97;2.53;;;6.00;99.90;;;;;;5054286;28;20308;-72
2023/11/28 12:49:17;;;;;;;4.45;2.45;;;6.00;99.90;;;;;;5079188;28;20437;-73
2023/11/28 12:51:44;;;;;;;5.93;2.78;;;6.00;99.90;;;;;;5076588;28;20028;-73